Time;durP1;ratioP1;P1;durP2;ratioP2;P2;SDS_P1;SDS_P2;PMS_P1;PMS_P2;Temp;Humidity;BMP_temperature;BMP_pressure;BME280_temperature;BME280_humidity;BME280_pressure;Samples;Min_cycle;Max_cycle;Signal;HPM_P1;HPM_P2
2022/12/29 00:02:11;;;;;;;13.30;9.95;;;9.20;99.90;;;;;;5045699;28;20037;-55
2022/12/29 00:04:36;;;;;;;13.55;10.27;;;9.20;99.90;;;;;;5048536;28;20041;-57
2022/12/29 00:07:05;;;;;;;14.38;10.48;;;9.40;99.90;;;;;;5042737;28;20037;-55
2022/12/29 00:09:31;;;;;;;13.93;10.77;;;9.70;99.90;;;;;;5048686;28;20384;-53
2022/12/29 00:11:58;;;;;;;14.95;10.45;;;9.60;99.90;;;;;;5045860;28;20513;-55
2022/12/29 00:17:11;;;;;;;15.13;11.20;;;9.30;99.90;;;;;;5048842;28;20124;-55
2022/12/29 00:36:18;;;;;;;15.85;10.80;;;9.90;99.90;;;;;;5042313;28;20075;-52
2022/12/29 00:44:20;;;;;;;14.02;10.80;;;10.10;99.90;;;;;;5036950;28;20204;-56
2022/12/29 00:46:46;;;;;;;14.02;10.25;;;9.80;99.90;;;;;;5035596;28;20395;-53
2022/12/29 00:49:31;;;;;;;13.75;10.20;;;9.70;99.90;;;;;;5033583;28;20116;-54
2022/12/29 00:52:09;;;;;;;15.13;10.93;;;9.80;99.90;;;;;;5034964;28;20080;-55
2022/12/29 00:54:37;;;;;;;15.63;10.02;;;;;;;;;;5033729;28;20102;-57
2022/12/29 00:57:04;;;;;;;15.77;10.57;;;9.40;99.90;;;;;;5031777;28;20048;-56
2022/12/29 00:59:30;;;;;;;14.82;9.80;;;9.50;99.90;;;;;;5033192;28;20037;-56
2022/12/29 01:01:56;;;;;;;15.10;10.40;;;10.40;99.90;;;;;;5035268;28;20028;-55
2022/12/29 01:04:23;;;;;;;14.00;10.75;;;9.70;99.90;;;;;;5033338;28;20069;-56
2022/12/29 01:06:49;;;;;;;14.60;10.13;;;;;;;;;;5034068;28;20442;-52
2022/12/29 01:12:02;;;;;;;13.98;10.43;;;9.30;99.90;;;;;;5048246;28;20059;-56
2022/12/29 01:14:28;;;;;;;11.55;9.43;;;9.90;99.90;;;;;;5049808;28;20391;-57
2022/12/29 01:16:55;;;;;;;16.05;9.43;;;9.60;99.90;;;;;;5051196;28;20036;-55
2022/12/29 01:19:21;;;;;;;14.10;10.43;;;9.40;99.90;;;;;;5047975;28;20120;-56
2022/12/29 01:21:47;;;;;;;13.88;10.10;;;9.60;99.90;;;;;;5059007;28;20044;-55
2022/12/29 01:24:14;;;;;;;15.07;9.63;;;9.40;99.90;;;;;;5054417;28;20553;-56
2022/12/29 01:26:40;;;;;;;12.88;9.80;;;9.60;99.90;;;;;;5050917;28;20068;-54
2022/12/29 01:29:12;;;;;;;15.40;10.18;;;9.50;99.90;;;;;;5053364;28;20068;-56
2022/12/29 01:31:38;;;;;;;14.05;9.60;;;9.50;99.90;;;;;;5049346;28;20453;-53
2022/12/29 01:34:05;;;;;;;12.50;9.65;;;9.40;99.90;;;;;;5049211;28;20048;-56
2022/12/29 01:36:31;;;;;;;13.65;9.95;;;9.80;99.90;;;;;;5049389;28;20406;-57
2022/12/29 01:38:56;;;;;;;14.90;9.50;;;9.80;99.90;;;;;;5049004;28;20033;-56
2022/12/29 01:41:22;;;;;;;15.63;9.23;;;9.30;99.90;;;;;;5049523;28;20384;-60
2022/12/29 01:43:50;;;;;;;14.35;10.23;;;9.70;99.90;;;;;;5049347;28;20067;-59
2022/12/29 01:46:20;;;;;;;15.65;8.65;;;9.80;99.90;;;;;;5049506;28;20040;-58
2022/12/29 01:48:48;;;;;;;14.25;8.95;;;9.40;99.90;;;;;;5045739;28;20049;-59
2022/12/29 01:51:15;;;;;;;15.88;10.10;;;9.20;99.90;;;;;;5049506;28;20041;-57
2022/12/29 01:53:42;;;;;;;16.35;11.27;;;9.90;99.90;;;;;;5053426;28;20045;-58
2022/12/29 01:56:12;;;;;;;13.73;9.40;;;9.30;99.90;;;;;;5049367;28;20059;-56
2022/12/29 01:58:41;;;;;;;14.93;9.63;;;10.00;99.90;;;;;;5048370;28;20029;-59
2022/12/29 02:01:07;;;;;;;13.95;9.60;;;9.50;99.90;;;;;;5049191;28;20037;-56
2022/12/29 02:03:34;;;;;;;16.67;10.10;;;9.70;99.90;;;;;;5050620;28;20552;-54
2022/12/29 02:06:16;;;;;;;15.20;9.80;;;9.40;99.90;;;;;;5053168;28;20065;-58
2022/12/29 02:08:43;;;;;;;20.48;11.35;;;9.10;99.90;;;;;;5051422;28;20064;-55
2022/12/29 02:11:16;;;;;;;16.80;10.40;;;9.50;99.90;;;;;;5052958;28;20048;-57
2022/12/29 02:13:42;;;;;;;17.55;10.40;;;9.60;99.90;;;;;;5052249;28;20052;-58
2022/12/29 02:16:19;;;;;;;18.70;11.38;;;9.80;99.90;;;;;;5057193;28;20037;-56
2022/12/29 02:19:05;;;;;;;12.10;7.68;;;9.50;99.90;;;;;;5052485;28;20048;-56
2022/12/29 02:21:59;;;;;;;10.18;5.55;;;9.40;99.90;;;;;;5050453;28;20100;-59
2022/12/29 02:24:46;;;;;;;7.40;4.03;;;9.60;99.90;;;;;;5051069;28;20509;-58
2022/12/29 02:27:31;;;;;;;5.28;2.22;;;9.50;99.90;;;;;;5052189;28;20329;-57
2022/12/29 02:30:17;;;;;;;5.75;2.35;;;9.40;99.90;;;;;;5048887;28;20047;-57
2022/12/29 02:33:09;;;;;;;4.90;1.92;;;9.80;99.90;;;;;;5058317;28;20051;-58
2022/12/29 02:35:44;;;;;;;4.38;1.50;;;;;;;;;;5055304;28;20090;-61
2022/12/29 02:38:25;;;;;;;3.60;1.20;;;9.30;99.90;;;;;;5051141;28;20033;-57
2022/12/29 02:41:16;;;;;;;4.13;1.50;;;9.40;99.90;;;;;;5050689;28;20043;-57
2022/12/29 02:44:09;;;;;;;5.13;1.55;;;9.10;99.90;;;;;;5059513;28;20037;-60
2022/12/29 02:46:51;;;;;;;5.13;1.50;;;9.40;99.90;;;;;;5049943;28;20053;-58
2022/12/29 02:49:29;;;;;;;4.72;2.10;;;;;;;;;;5051150;28;20044;-58
2022/12/29 02:52:07;;;;;;;4.43;1.60;;;9.70;99.90;;;;;;5044827;28;20410;-59
2022/12/29 02:54:42;;;;;;;6.63;1.77;;;8.90;99.90;;;;;;5051711;28;20040;-57
2022/12/29 02:57:22;;;;;;;4.30;1.80;;;9.00;99.90;;;;;;5051267;28;20036;-59
2022/12/29 02:59:54;;;;;;;8.25;2.63;;;9.20;99.90;;;;;;5052188;28;20041;-56
2022/12/29 03:02:59;;;;;;;6.80;3.00;;;9.30;99.90;;;;;;5052164;28;20076;-58
2022/12/29 03:05:48;;;;;;;7.28;3.90;;;9.40;99.90;;;;;;5028689;28;20060;-55
2022/12/29 03:08:27;;;;;;;8.98;5.03;;;;;;;;;;5051315;28;20041;-57
2022/12/29 03:11:04;;;;;;;11.23;5.38;;;8.40;99.90;;;;;;5051702;28;20513;-55
2022/12/29 03:16:46;;;;;;;13.02;5.30;;;9.50;99.90;;;;;;5051576;28;20041;-55
2022/12/29 03:19:21;;;;;;;10.02;4.75;;;8.60;99.90;;;;;;5045745;28;20033;-58
2022/12/29 03:22:28;;;;;;;8.30;4.90;;;9.40;99.90;;;;;;5051232;28;20071;-57
2022/12/29 03:25:02;;;;;;;12.20;4.25;;;8.70;99.90;;;;;;5045808;28;20204;-56
2022/12/29 03:27:51;;;;;;;17.20;5.28;;;9.20;99.90;;;;;;5050941;28;20030;-56
2022/12/29 03:30:18;;;;;;;8.98;3.13;;;9.30;99.90;;;;;;5047330;28;20124;-56
2022/12/29 03:32:52;;;;;;;8.73;2.70;;;9.10;99.90;;;;;;5051031;28;20051;-56
2022/12/29 03:35:21;;;;;;;10.20;3.10;;;9.60;99.90;;;;;;5051295;28;20110;-52
2022/12/29 03:38:02;;;;;;;12.70;2.97;;;8.90;99.90;;;;;;5053161;28;20103;-55
2022/12/29 03:40:34;;;;;;;8.18;2.72;;;8.50;99.90;;;;;;5051094;28;20648;-55
2022/12/29 03:43:01;;;;;;;11.88;3.00;;;8.80;99.90;;;;;;5051185;28;20037;-55
2022/12/29 03:45:27;;;;;;;11.98;2.67;;;8.70;99.90;;;;;;5050774;28;20043;-56
2022/12/29 03:47:53;;;;;;;12.77;3.38;;;8.10;99.90;;;;;;5053924;28;20048;-52
2022/12/29 03:50:19;;;;;;;9.77;2.33;;;8.70;99.90;;;;;;5058788;28;20059;-57
2022/12/29 03:52:45;;;;;;;11.65;3.10;;;8.60;99.90;;;;;;5050643;28;20037;-56
2022/12/29 03:55:10;;;;;;;10.65;2.72;;;9.20;99.90;;;;;;5050654;28;20053;-53
2022/12/29 03:57:36;;;;;;;6.80;2.22;;;8.80;99.90;;;;;;5050196;28;20033;-54
2022/12/29 04:00:05;;;;;;;8.88;2.03;;;8.70;99.90;;;;;;5050877;28;20029;-57
2022/12/29 04:02:30;;;;;;;8.68;2.10;;;8.90;99.90;;;;;;5046429;28;20033;-54
2022/12/29 04:04:56;;;;;;;11.60;2.78;;;8.70;99.90;;;;;;5050616;28;20036;-56
2022/12/29 04:07:22;;;;;;;8.20;2.05;;;;;;;;;;5050231;28;20037;-55
2022/12/29 04:09:48;;;;;;;8.48;2.35;;;;;;;;;;5049771;28;20059;-52
2022/12/29 04:12:14;;;;;;;7.88;2.10;;;8.60;99.90;;;;;;5050701;28;20039;-54
2022/12/29 04:14:40;;;;;;;8.80;1.92;;;8.20;99.90;;;;;;5049869;28;20044;-54
2022/12/29 04:17:06;;;;;;;8.13;2.58;;;8.10;99.90;;;;;;5049654;28;20020;-52
2022/12/29 04:19:31;;;;;;;8.07;1.95;;;8.40;99.90;;;;;;5052315;28;20043;-55
2022/12/29 04:21:57;;;;;;;6.53;2.45;;;8.80;99.90;;;;;;5050667;28;20032;-56
2022/12/29 04:24:23;;;;;;;11.27;3.20;;;9.00;99.90;;;;;;5049066;28;20068;-54
2022/12/29 04:26:49;;;;;;;16.13;3.03;;;8.50;99.90;;;;;;5050094;28;20037;-54
2022/12/29 04:29:14;;;;;;;11.75;2.97;;;8.90;99.90;;;;;;5050099;28;20072;-54
2022/12/29 04:31:40;;;;;;;14.85;3.55;;;8.60;99.90;;;;;;5050046;28;20048;-56
2022/12/29 04:34:05;;;;;;;10.95;3.38;;;8.40;99.90;;;;;;5050143;28;20517;-52
2022/12/29 04:36:31;;;;;;;13.82;2.97;;;8.20;99.90;;;;;;5047082;28;20416;-52
2022/12/29 04:38:57;;;;;;;17.33;3.58;;;8.30;99.90;;;;;;5050812;28;20457;-54
2022/12/29 04:41:23;;;;;;;19.33;3.58;;;8.70;99.90;;;;;;5050222;28;20501;-55
2022/12/29 04:43:49;;;;;;;19.55;5.32;;;8.80;99.90;;;;;;5054883;28;20082;-55
2022/12/29 04:46:15;;;;;;;21.27;5.00;;;;;;;;;;5045162;28;20124;-51
2022/12/29 04:48:40;;;;;;;20.60;5.40;;;8.40;99.90;;;;;;5048827;28;20387;-51
2022/12/29 04:51:06;;;;;;;25.42;4.85;;;8.40;99.90;;;;;;5049957;28;20036;-51
2022/12/29 04:53:31;;;;;;;16.20;4.10;;;9.10;99.90;;;;;;5050013;28;20124;-55
2022/12/29 04:55:57;;;;;;;19.88;4.38;;;;;;;;;;5048491;28;20067;-51
2022/12/29 04:58:23;;;;;;;26.45;5.10;;;8.50;99.90;;;;;;5049542;28;20043;-51
2022/12/29 05:00:50;;;;;;;21.73;4.97;;;;;;;;;;5049666;28;20029;-52
2022/12/29 05:03:16;;;;;;;13.55;3.17;;;8.20;99.90;;;;;;5049924;28;20414;-55
2022/12/29 05:05:42;;;;;;;22.98;4.22;;;8.90;99.90;;;;;;5049203;28;20116;-51
2022/12/29 05:08:11;;;;;;;24.70;5.47;;;9.00;99.90;;;;;;5043261;28;20072;-51
2022/12/29 05:10:43;;;;;;;20.85;4.85;;;8.60;99.90;;;;;;5049939;28;20056;-51
2022/12/29 05:13:09;;;;;;;18.77;3.40;;;8.90;99.90;;;;;;5050518;28;20480;-55
2022/12/29 05:15:34;;;;;;;23.33;5.53;;;9.30;99.90;;;;;;5056782;28;20084;-53
2022/12/29 05:18:00;;;;;;;23.00;4.50;;;9.10;99.90;;;;;;5049195;28;20033;-53
2022/12/29 05:20:26;;;;;;;20.67;4.15;;;8.30;99.90;;;;;;5049926;28;20056;-55
2022/12/29 05:22:51;;;;;;;19.50;4.60;;;9.20;99.90;;;;;;5049725;28;20087;-56
2022/12/29 05:25:17;;;;;;;18.05;3.80;;;;;;;;;;5049864;28;20086;-51
2022/12/29 05:27:43;;;;;;;16.55;4.10;;;8.50;99.90;;;;;;5049142;28;20044;-55
2022/12/29 05:30:09;;;;;;;18.20;4.78;;;8.30;99.90;;;;;;5049779;28;20532;-51
2022/12/29 05:32:35;;;;;;;21.23;5.55;;;8.30;99.90;;;;;;5050012;28;20045;-51
2022/12/29 05:35:01;;;;;;;17.13;4.13;;;9.00;99.90;;;;;;5048516;28;20044;-54
2022/12/29 05:37:26;;;;;;;20.00;3.67;;;8.70;99.90;;;;;;5049726;28;20029;-56
2022/12/29 05:39:53;;;;;;;17.08;4.55;;;8.50;99.90;;;;;;5053462;28;20044;-51
2022/12/29 05:42:19;;;;;;;27.98;7.20;;;8.60;91.40;;;;;;5053263;28;20033;-55
2022/12/29 05:44:44;;;;;;;10.80;3.33;;;9.10;83.90;;;;;;5053292;28;20304;-51
2022/12/29 05:47:10;;;;;;;18.98;3.92;;;9.00;1.00;;;;;;5049958;28;20040;-55
2022/12/29 05:49:36;;;;;;;17.98;4.88;;;9.00;30.00;;;;;;5054681;28;20032;-54
2022/12/29 05:52:01;;;;;;;13.43;3.90;;;8.70;1.00;;;;;;5058109;28;20024;-54
2022/12/29 05:54:27;;;;;;;19.75;4.35;;;8.60;1.00;;;;;;5066522;28;20098;-53
2022/12/29 05:56:52;;;;;;;18.85;4.00;;;8.90;99.90;;;;;;5052631;28;20124;-52
2022/12/29 05:59:18;;;;;;;20.10;3.92;;;9.20;99.90;;;;;;5057165;28;20115;-54
2022/12/29 06:01:44;;;;;;;23.00;5.00;;;8.70;1.00;;;;;;5063493;28;20063;-52
2022/12/29 06:04:13;;;;;;;21.10;3.95;;;9.00;1.00;;;;;;5052979;28;20033;-51
2022/12/29 06:06:40;;;;;;;19.35;4.57;;;8.70;1.00;;;;;;5052962;28;20541;-52
2022/12/29 06:09:06;;;;;;;14.38;3.30;;;8.20;99.90;;;;;;5052449;28;20456;-51
2022/12/29 06:11:31;;;;;;;19.35;4.00;;;8.30;99.90;;;;;;5052634;28;20037;-51
2022/12/29 06:13:57;;;;;;;19.33;4.60;;;;;;;;;;5051577;28;20036;-55
2022/12/29 06:16:23;;;;;;;19.85;3.97;;;8.30;99.90;;;;;;5052815;28;20091;-54
2022/12/29 06:18:49;;;;;;;15.40;3.83;;;9.10;99.90;;;;;;5039397;28;20040;-51
2022/12/29 06:21:14;;;;;;;24.00;4.63;;;8.70;99.90;;;;;;5036637;28;20069;-52
2022/12/29 06:23:40;;;;;;;23.20;3.92;;;10.00;99.90;;;;;;5039850;28;20037;-51
2022/12/29 06:26:05;;;;;;;22.75;4.50;;;8.80;99.90;;;;;;5052432;28;20425;-50
2022/12/29 06:28:31;;;;;;;23.98;4.05;;;9.20;99.90;;;;;;5047912;28;20114;-51
2022/12/29 06:30:57;;;;;;;27.35;5.78;;;9.00;99.90;;;;;;5041827;28;20098;-52
2022/12/29 06:33:22;;;;;;;21.42;5.43;;;8.70;99.90;;;;;;5046578;28;20037;-53
2022/12/29 06:35:48;;;;;;;21.33;4.80;;;8.80;99.90;;;;;;5051683;28;20428;-53
2022/12/29 06:38:14;;;;;;;15.55;4.38;;;8.40;99.90;;;;;;5051987;28;20090;-51
2022/12/29 06:40:42;;;;;;;23.42;4.07;;;8.70;99.90;;;;;;5052254;28;20044;-51
2022/12/29 06:43:08;;;;;;;20.30;4.95;;;8.60;99.90;;;;;;5043732;28;20037;-51
2022/12/29 06:45:34;;;;;;;25.73;5.97;;;8.30;99.90;;;;;;5051438;28;20490;-51
2022/12/29 06:47:59;;;;;;;22.67;5.65;;;8.20;99.90;;;;;;5057008;28;20075;-54
2022/12/29 06:50:25;;;;;;;34.45;5.70;;;8.80;99.90;;;;;;5042647;28;20465;-51
2022/12/29 06:52:51;;;;;;;23.08;4.20;;;8.80;99.90;;;;;;5057858;28;20385;-52
2022/12/29 06:55:16;;;;;;;19.52;4.20;;;9.20;99.90;;;;;;5055612;28;20558;-51
2022/12/29 06:57:42;;;;;;;16.52;4.55;;;8.70;95.10;;;;;;5050890;28;20048;-53
2022/12/29 07:00:08;;;;;;;19.73;4.25;;;8.80;99.90;;;;;;5052345;28;20301;-53
2022/12/29 07:02:34;;;;;;;23.10;6.35;;;8.60;99.90;;;;;;5051626;28;20495;-51
2022/12/29 07:05:07;;;;;;;20.05;4.20;;;8.70;99.90;;;;;;5052164;28;20044;-50
2022/12/29 07:07:32;;;;;;;22.42;5.47;;;9.10;70.90;;;;;;5051235;28;20095;-50
2022/12/29 07:09:58;;;;;;;22.45;4.50;;;;;;;;;;5051767;28;20041;-51
2022/12/29 07:12:24;;;;;;;15.82;4.47;;;9.40;79.60;;;;;;5050783;28;20040;-51
2022/12/29 07:14:53;;;;;;;17.77;5.05;;;9.00;99.90;;;;;;5051093;28;20029;-54
2022/12/29 07:17:18;;;;;;;20.20;3.80;;;9.10;56.60;;;;;;5046223;28;20086;-50
2022/12/29 07:19:44;;;;;;;23.75;4.50;;;9.50;99.90;;;;;;5049755;28;20045;-51
2022/12/29 07:22:10;;;;;;;13.05;3.88;;;9.10;92.80;;;;;;5051460;28;20044;-54
2022/12/29 07:24:36;;;;;;;24.65;5.55;;;9.40;48.40;;;;;;5051452;28;20502;-53
2022/12/29 07:27:02;;;;;;;18.88;5.28;;;9.10;55.20;;;;;;5050293;28;20045;-53
2022/12/29 07:29:27;;;;;;;16.63;4.05;;;9.50;29.20;;;;;;5051532;28;20564;-50
2022/12/29 07:31:53;;;;;;;17.95;4.60;;;8.70;73.20;;;;;;5043561;28;20040;-54
2022/12/29 07:34:22;;;;;;;21.45;4.10;;;9.10;40.10;;;;;;5059544;28;20055;-53
2022/12/29 07:36:47;;;;;;;22.00;5.00;;;9.20;22.80;;;;;;5051571;28;20044;-54
2022/12/29 07:39:13;;;;;;;18.15;4.25;;;9.10;28.90;;;;;;5045625;28;20029;-52
2022/12/29 07:41:38;;;;;;;16.73;4.60;;;9.20;60.10;;;;;;5051527;28;20041;-53
2022/12/29 07:44:04;;;;;;;24.75;4.22;;;9.10;1.00;;;;;;5054800;28;20056;-53
2022/12/29 07:46:30;;;;;;;15.90;4.20;;;8.90;1.00;;;;;;5058013;28;20125;-51
2022/12/29 07:48:55;;;;;;;13.10;3.65;;;9.30;1.00;;;;;;5058887;28;20039;-55
2022/12/29 07:51:21;;;;;;;18.15;4.82;;;9.30;1.00;;;;;;5058649;28;20143;-53
2022/12/29 07:53:47;;;;;;;18.65;6.60;;;;;;;;;;5049852;28;20047;-53
2022/12/29 07:56:12;;;;;;;20.35;5.10;;;9.70;1.00;;;;;;5055303;28;20047;-52
2022/12/29 07:58:38;;;;;;;23.70;5.03;;;9.20;1.00;;;;;;5049343;28;20083;-53
2022/12/29 08:01:05;;;;;;;19.67;5.82;;;9.10;1.00;;;;;;5052706;28;20041;-51
2022/12/29 08:03:30;;;;;;;19.85;5.10;;;9.40;1.00;;;;;;5054118;28;20561;-54
2022/12/29 08:05:56;;;;;;;24.52;4.40;;;8.60;1.00;;;;;;5049880;28;20041;-52
2022/12/29 08:08:22;;;;;;;21.98;4.53;;;9.40;1.00;;;;;;5049495;28;20078;-54
2022/12/29 08:10:48;;;;;;;18.50;4.35;;;9.20;1.00;;;;;;5049803;28;20041;-53
2022/12/29 08:13:14;;;;;;;22.35;4.65;;;9.80;1.00;;;;;;5051541;28;20483;-53
2022/12/29 08:15:39;;;;;;;17.77;4.53;;;9.00;1.00;;;;;;5050612;28;20064;-52
2022/12/29 08:18:05;;;;;;;22.75;4.47;;;8.90;1.00;;;;;;5050141;28;20036;-50
2022/12/29 08:20:31;;;;;;;17.83;4.53;;;9.30;1.00;;;;;;5050369;28;20033;-51
2022/12/29 08:22:57;;;;;;;17.20;3.97;;;9.30;1.00;;;;;;5048639;28;20041;-51
2022/12/29 08:25:23;;;;;;;20.63;5.53;;;9.20;1.00;;;;;;5053693;28;20048;-54
2022/12/29 08:27:48;;;;;;;22.65;6.75;;;9.50;1.00;;;;;;5048298;28;20048;-54
2022/12/29 08:30:14;;;;;;;24.55;5.13;;;9.40;1.00;;;;;;5048385;28;20052;-51
2022/12/29 08:32:46;;;;;;;23.73;5.05;;;8.90;1.00;;;;;;5052671;28;20040;-52
2022/12/29 08:35:12;;;;;;;23.75;5.55;;;9.30;1.00;;;;;;5047130;28;20037;-51
2022/12/29 08:37:38;;;;;;;20.75;6.47;;;8.70;1.00;;;;;;5049445;28;20119;-50
2022/12/29 08:40:05;;;;;;;24.73;5.60;;;8.80;1.00;;;;;;5049932;28;20172;-50
2022/12/29 08:42:31;;;;;;;21.48;4.85;;;9.10;1.00;;;;;;5050855;28;20555;-51
2022/12/29 08:45:03;;;;;;;17.98;5.07;;;9.40;1.00;;;;;;5047789;28;20502;-51
2022/12/29 08:47:29;;;;;;;19.60;5.47;;;9.20;1.00;;;;;;5048546;28;20514;-52
2022/12/29 08:49:55;;;;;;;21.20;5.30;;;9.40;1.00;;;;;;5047834;28;20114;-51
2022/12/29 08:52:20;;;;;;;26.02;5.22;;;8.80;1.00;;;;;;5043056;28;20068;-51
2022/12/29 08:54:46;;;;;;;21.23;6.20;;;9.70;1.00;;;;;;5047675;28;20044;-51
2022/12/29 08:57:12;;;;;;;15.07;5.15;;;9.10;1.00;;;;;;5038446;28;20040;-51
2022/12/29 08:59:38;;;;;;;23.13;6.07;;;9.10;1.00;;;;;;5049296;28;20025;-50
2022/12/29 09:02:03;;;;;;;22.95;5.22;;;9.70;1.00;;;;;;5048928;28;20036;-50
2022/12/29 09:04:29;;;;;;;22.27;5.97;;;9.00;1.00;;;;;;5049701;28;20029;-53
2022/12/29 09:06:55;;;;;;;27.98;4.78;;;9.00;16.40;;;;;;5047725;28;20090;-54
2022/12/29 09:09:21;;;;;;;29.75;5.82;;;9.10;19.80;;;;;;5051699;28;20099;-53
2022/12/29 09:11:46;;;;;;;21.80;6.43;;;9.00;47.00;;;;;;5051596;28;20402;-53
2022/12/29 09:14:13;;;;;;;31.80;5.95;;;8.40;99.90;;;;;;5055930;28;20495;-54
2022/12/29 09:16:38;;;;;;;29.83;5.50;;;8.70;99.90;;;;;;5052769;28;20091;-51
2022/12/29 09:19:04;;;;;;;30.85;6.40;;;9.10;99.90;;;;;;5051427;28;20049;-54
2022/12/29 09:21:30;;;;;;;36.47;6.20;;;8.80;98.10;;;;;;5048444;28;20410;-51
2022/12/29 09:23:56;;;;;;;33.83;7.20;;;8.80;99.90;;;;;;5053996;28;20040;-50
2022/12/29 09:26:21;;;;;;;26.10;7.25;;;8.20;99.90;;;;;;5050497;28;20124;-54
2022/12/29 09:28:47;;;;;;;31.85;6.32;;;8.20;99.90;;;;;;5053551;28;20479;-57
2022/12/29 09:31:13;;;;;;;42.83;8.82;;;8.90;99.90;;;;;;5053519;28;20518;-52
2022/12/29 09:33:39;;;;;;;33.60;7.60;;;8.80;99.90;;;;;;5053595;28;20116;-55
2022/12/29 09:36:05;;;;;;;27.63;5.82;;;8.70;99.90;;;;;;5046894;28;20044;-57
2022/12/29 09:38:31;;;;;;;27.50;5.88;;;8.30;99.90;;;;;;5052896;28;20055;-55
2022/12/29 09:41:32;;;;;;;30.98;6.32;;;8.60;99.90;;;;;;5045111;28;20042;-55
2022/12/29 09:44:04;;;;;;;30.85;5.60;;;8.20;99.90;;;;;;5015913;28;20056;-55
2022/12/29 09:46:44;;;;;;;30.08;6.93;;;8.70;99.90;;;;;;5044205;28;20392;-58
2022/12/29 09:49:09;;;;;;;20.40;4.80;;;8.00;99.90;;;;;;5042900;28;20113;-53
2022/12/29 09:51:37;;;;;;;14.68;5.55;;;8.00;99.90;;;;;;5063606;28;20064;-57
2022/12/29 09:54:13;;;;;;;20.08;6.22;;;8.10;99.90;;;;;;5052774;28;20090;-55
2022/12/29 09:56:39;;;;;;;25.65;5.38;;;;;;;;;;5052525;28;20044;-57
2022/12/29 09:59:17;;;;;;;27.83;6.35;;;8.70;99.90;;;;;;5059364;28;20125;-58
2022/12/29 10:02:12;;;;;;;29.33;5.68;;;7.80;99.90;;;;;;5061986;28;20075;-55
2022/12/29 10:04:38;;;;;;;18.52;5.45;;;7.80;99.90;;;;;;5053684;28;20163;-55
2022/12/29 10:07:17;;;;;;;23.48;6.35;;;8.30;99.90;;;;;;5050884;28;20056;-57
2022/12/29 10:10:02;;;;;;;21.75;5.50;;;8.00;99.90;;;;;;5060739;28;20050;-58
2022/12/29 10:12:42;;;;;;;18.75;6.00;;;8.60;99.90;;;;;;5045160;28;20038;-59
2022/12/29 10:15:14;;;;;;;31.63;5.68;;;;;;;;;;5064568;28;20470;-55
2022/12/29 10:17:54;;;;;;;27.25;6.15;;;8.60;99.90;;;;;;5053997;28;20111;-55
2022/12/29 10:20:20;;;;;;;30.15;7.07;;;8.40;99.90;;;;;;5060263;28;20082;-56
2022/12/29 10:23:12;;;;;;;31.70;5.88;;;8.60;99.90;;;;;;5055074;28;20071;-55
2022/12/29 10:25:41;;;;;;;22.75;5.03;;;8.20;99.90;;;;;;5054534;28;20041;-55
2022/12/29 10:28:21;;;;;;;35.28;5.60;;;8.90;99.90;;;;;;5057526;28;20111;-56
2022/12/29 10:30:53;;;;;;;23.48;5.20;;;8.60;99.90;;;;;;5059572;28;20048;-55
2022/12/29 10:33:23;;;;;;;30.52;7.00;;;8.90;99.90;;;;;;5036022;28;20075;-53
2022/12/29 10:35:50;;;;;;;26.40;5.55;;;8.20;99.90;;;;;;5036088;28;20036;-55
2022/12/29 10:38:38;;;;;;;30.10;6.95;;;8.30;99.90;;;;;;5032691;28;20034;-56
2022/12/29 10:41:09;;;;;;;27.20;5.90;;;;;;;;;;5034292;28;20406;-52
2022/12/29 10:43:52;;;;;;;27.95;6.20;;;8.40;99.90;;;;;;5062474;28;20036;-57
2022/12/29 10:46:25;;;;;;;27.50;6.85;;;8.40;99.90;;;;;;5046944;28;20495;-55
2022/12/29 10:48:51;;;;;;;28.52;4.97;;;8.30;99.90;;;;;;5057574;28;20051;-55
2022/12/29 10:51:20;;;;;;;25.02;5.43;;;9.20;99.90;;;;;;5060227;28;20112;-56
2022/12/29 10:53:56;;;;;;;23.33;5.47;;;8.30;99.90;;;;;;5057334;28;20048;-54
2022/12/29 10:56:21;;;;;;;17.15;3.42;;;8.50;99.90;;;;;;5049209;28;20087;-57
2022/12/29 10:58:53;;;;;;;26.27;5.47;;;9.00;99.90;;;;;;5051299;28;20268;-53
2022/12/29 11:01:23;;;;;;;28.35;6.07;;;8.50;99.90;;;;;;5050573;28;20035;-54
2022/12/29 11:04:25;;;;;;;22.85;4.18;;;9.00;99.90;;;;;;5046380;28;20442;-56
2022/12/29 11:06:51;;;;;;;15.57;3.85;;;8.70;65.90;;;;;;5049290;28;20048;-58
2022/12/29 11:09:25;;;;;;;27.08;4.82;;;8.60;69.10;;;;;;5032506;28;20416;-56
2022/12/29 11:11:50;;;;;;;22.58;5.32;;;8.70;68.10;;;;;;5032110;28;20102;-52
2022/12/29 11:14:29;;;;;;;21.38;5.78;;;8.30;1.00;;;;;;5038821;28;20040;-52
2022/12/29 11:17:03;;;;;;;20.60;4.97;;;8.90;4.50;;;;;;5051608;28;20041;-52
2022/12/29 11:27:15;;;;;;;12.27;3.17;;;8.80;1.00;;;;;;5066205;28;20070;-53
2022/12/29 11:29:42;;;;;;;16.67;3.20;;;8.70;1.00;;;;;;5056358;28;20106;-53
2022/12/29 11:32:29;;;;;;;16.90;5.25;;;8.70;1.00;;;;;;5067695;28;20044;-52
2022/12/29 11:35:00;;;;;;;14.65;3.88;;;9.00;1.00;;;;;;5041681;28;20044;-54
2022/12/29 11:37:31;;;;;;;19.65;3.78;;;8.40;1.00;;;;;;5070261;28;20041;-51
2022/12/29 11:39:59;;;;;;;15.68;3.45;;;8.70;1.00;;;;;;5067421;28;20036;-52
2022/12/29 11:42:53;;;;;;;11.43;2.70;;;8.30;1.00;;;;;;5067736;28;20114;-52
2022/12/29 11:45:20;;;;;;;10.40;3.33;;;8.50;1.00;;;;;;5058504;28;20163;-53
2022/12/29 11:47:55;;;;;;;15.13;2.40;;;8.70;1.00;;;;;;5090661;28;20051;-53
2022/12/29 11:50:31;;;;;;;17.13;4.13;;;9.20;99.90;;;;;;5086895;28;20119;-54
2022/12/29 11:53:17;;;;;;;11.60;3.08;;;10.50;99.90;;;;;;5091225;28;20500;-52
2022/12/29 11:56:08;;;;;;;11.38;2.75;;;11.50;99.90;;;;;;5083083;28;20040;-52
2022/12/29 11:58:36;;;;;;;12.27;2.55;;;11.70;99.90;;;;;;5056986;28;20029;-54
2022/12/29 12:01:13;;;;;;;10.52;3.47;;;11.90;99.90;;;;;;5073141;28;20047;-53
2022/12/29 12:03:45;;;;;;;12.77;2.50;;;11.70;99.90;;;;;;5073977;28;20511;-52
2022/12/29 12:06:16;;;;;;;10.70;1.77;;;12.80;99.90;;;;;;5084829;28;20040;-53
2022/12/29 12:08:48;;;;;;;9.38;3.03;;;12.10;99.90;;;;;;5090197;28;20537;-51
2022/12/29 12:11:22;;;;;;;9.05;2.80;;;13.10;99.90;;;;;;5090779;28;20420;-54
2022/12/29 12:14:15;;;;;;;8.85;2.75;;;12.40;99.90;;;;;;5090838;28;20633;-55
2022/12/29 12:16:44;;;;;;;8.52;2.10;;;;;;;;;;5091097;28;20036;-54
2022/12/29 12:19:27;;;;;;;6.43;2.13;;;13.00;99.50;;;;;;5090315;28;20489;-52
2022/12/29 12:22:00;;;;;;;11.20;2.10;;;12.60;94.20;;;;;;5090223;28;20038;-54
2022/12/29 12:24:53;;;;;;;6.50;1.75;;;12.90;99.80;;;;;;5087202;28;20028;-52
2022/12/29 12:27:26;;;;;;;9.90;2.38;;;12.80;50.10;;;;;;5086001;28;20127;-53
2022/12/29 12:29:56;;;;;;;8.70;2.15;;;12.20;49.00;;;;;;5090426;28;20064;-53
2022/12/29 12:32:43;;;;;;;6.55;1.85;;;13.40;43.40;;;;;;5089933;28;20040;-55
2022/12/29 12:35:46;;;;;;;8.10;1.98;;;12.80;36.70;;;;;;5072234;28;20040;-53
2022/12/29 12:38:45;;;;;;;9.25;2.22;;;13.10;27.80;;;;;;5084164;28;20032;-52
2022/12/29 12:41:37;;;;;;;10.18;2.38;;;13.00;1.00;;;;;;5090364;28;20032;-52
2022/12/29 12:44:03;;;;;;;10.90;2.95;;;;;;;;;;5090373;28;20486;-51
2022/12/29 12:46:47;;;;;;;12.20;2.95;;;12.70;1.00;;;;;;5089790;28;20089;-52
2022/12/29 12:49:52;;;;;;;12.73;3.13;;;12.80;1.00;;;;;;5090389;28;20042;-51
2022/12/29 12:52:45;;;;;;;10.05;2.20;;;12.80;1.00;;;;;;5090441;28;20292;-51
2022/12/29 12:55:37;;;;;;;8.20;2.10;;;13.70;1.00;;;;;;5084243;28;20058;-53
2022/12/29 12:58:10;;;;;;;8.55;2.30;;;13.50;1.00;;;;;;5089667;28;20063;-51
2022/12/29 13:01:12;;;;;;;8.80;2.30;;;13.60;1.00;;;;;;5071987;28;20056;-51
2022/12/29 13:04:13;;;;;;;9.73;2.10;;;14.00;1.00;;;;;;5087904;28;20073;-54
2022/12/29 13:06:57;;;;;;;12.15;2.45;;;12.50;9.90;;;;;;4971701;28;20050;-54
2022/12/29 13:09:45;;;;;;;10.95;2.28;;;13.40;1.00;;;;;;5082270;28;20047;-51
2022/12/29 13:12:33;;;;;;;9.30;2.78;;;12.60;1.00;;;;;;5085096;28;20064;-53
2022/12/29 13:15:14;;;;;;;8.85;1.90;;;12.20;1.00;;;;;;5090607;28;20036;-53
2022/12/29 13:17:51;;;;;;;7.68;2.30;;;12.00;1.00;;;;;;5090111;28;20456;-51
2022/12/29 13:20:39;;;;;;;9.93;2.50;;;10.70;13.40;;;;;;5089843;28;20111;-54
2022/12/29 13:23:48;;;;;;;15.75;4.05;;;11.30;56.90;;;;;;5090018;28;20273;-51
2022/12/29 13:26:30;;;;;;;9.23;2.33;;;10.30;80.10;;;;;;5023211;28;20522;-51
2022/12/29 13:29:05;;;;;;;8.18;2.53;;;11.10;55.70;;;;;;5071140;28;20040;-51
2022/12/29 13:31:57;;;;;;;11.23;2.65;;;11.00;30.40;;;;;;5089879;28;20048;-53
2022/12/29 13:34:42;;;;;;;10.57;2.80;;;12.30;1.00;;;;;;5088889;28;20126;-52
2022/12/29 13:37:20;;;;;;;10.93;3.00;;;11.40;20.50;;;;;;5070725;28;20482;-51
2022/12/29 13:39:57;;;;;;;9.20;2.25;;;9.80;60.30;;;;;;5089859;28;20111;-51
2022/12/29 13:42:24;;;;;;;6.68;1.70;;;10.70;81.50;;;;;;5071757;28;20047;-52
2022/12/29 13:45:14;;;;;;;14.20;4.72;;;9.60;99.90;;;;;;5089706;28;20419;-50
2022/12/29 13:47:45;;;;;;;10.82;2.42;;;9.80;90.70;;;;;;5070956;28;20068;-56
2022/12/29 13:50:19;;;;;;;9.18;2.75;;;10.10;99.90;;;;;;5090200;28;20043;-53
2022/12/29 13:52:51;;;;;;;6.00;2.03;;;9.50;99.90;;;;;;5089606;28;20073;-52
2022/12/29 13:55:29;;;;;;;9.77;2.30;;;9.30;99.90;;;;;;5089452;28;20282;-50